sensor_id;sensor_type;location;lat;lon;timestamp;pressure;altitude;pressure_sealevel;temperature;humidity
41264;BME280;26998;48.714;9.414;2024-01-06T00:02:08;97694.53;;;6.16;77.81
41264;BME280;26998;48.714;9.414;2024-01-06T00:04:34;97659.75;;;5.91;78.72
41264;BME280;26998;48.714;9.414;2024-01-06T00:07:01;97688.59;;;6.09;78.12
41264;BME280;26998;48.714;9.414;2024-01-06T00:09:27;97654.00;;;5.82;78.83
41264;BME280;26998;48.714;9.414;2024-01-06T00:11:54;97696.34;;;6.04;78.94
41264;BME280;26998;48.714;9.414;2024-01-06T00:14:20;97677.81;;;5.87;78.55
41264;BME280;26998;48.714;9.414;2024-01-06T00:16:47;97669.56;;;5.83;79.56
41264;BME280;26998;48.714;9.414;2024-01-06T00:19:13;97700.81;;;6.03;79.54
41264;BME280;26998;48.714;9.414;2024-01-06T00:21:40;97700.13;;;5.96;79.98
41264;BME280;26998;48.714;9.414;2024-01-06T00:24:06;97680.22;;;5.88;79.65
41264;BME280;26998;48.714;9.414;2024-01-06T00:26:33;97664.16;;;5.67;80.00
41264;BME280;26998;48.714;9.414;2024-01-06T00:28:59;97677.19;;;5.73;79.62
41264;BME280;26998;48.714;9.414;2024-01-06T00:31:26;97661.75;;;5.65;80.23
41264;BME280;26998;48.714;9.414;2024-01-06T00:33:53;97682.56;;;5.78;80.19
41264;BME280;26998;48.714;9.414;2024-01-06T00:36:20;97648.69;;;5.47;80.91
41264;BME280;26998;48.714;9.414;2024-01-06T00:38:46;97673.41;;;5.58;80.71
41264;BME280;26998;48.714;9.414;2024-01-06T00:41:13;97668.72;;;5.48;81.09
41264;BME280;26998;48.714;9.414;2024-01-06T00:43:40;97710.34;;;5.74;81.34
41264;BME280;26998;48.714;9.414;2024-01-06T00:46:07;97707.94;;;5.73;81.32
41264;BME280;26998;48.714;9.414;2024-01-06T00:48:34;97718.94;;;5.81;80.81
41264;BME280;26998;48.714;9.414;2024-01-06T00:51:00;97684.72;;;5.58;81.21
41264;BME280;26998;48.714;9.414;2024-01-06T00:53:27;97700.63;;;5.75;80.95
41264;BME280;26998;48.714;9.414;2024-01-06T00:55:53;97673.50;;;5.51;81.03
41264;BME280;26998;48.714;9.414;2024-01-06T00:58:20;97677.84;;;5.57;80.37
41264;BME280;26998;48.714;9.414;2024-01-06T01:00:46;97686.75;;;5.56;81.10
41264;BME280;26998;48.714;9.414;2024-01-06T01:03:13;97721.00;;;5.79;80.86
41264;BME280;26998;48.714;9.414;2024-01-06T01:05:40;97725.91;;;5.76;81.23
41264;BME280;26998;48.714;9.414;2024-01-06T01:08:06;97700.34;;;5.83;80.44
41264;BME280;26998;48.714;9.414;2024-01-06T01:10:33;97672.09;;;6.13;78.54
41264;BME280;26998;48.714;9.414;2024-01-06T01:12:59;97692.69;;;5.93;79.31
41264;BME280;26998;48.714;9.414;2024-01-06T01:15:26;97681.84;;;5.60;80.42
41264;BME280;26998;48.714;9.414;2024-01-06T01:17:52;97699.44;;;5.59;80.72
41264;BME280;26998;48.714;9.414;2024-01-06T01:20:19;97705.97;;;5.57;81.46
41264;BME280;26998;48.714;9.414;2024-01-06T01:22:46;97720.03;;;5.62;80.72
41264;BME280;26998;48.714;9.414;2024-01-06T01:25:12;97728.56;;;5.58;81.23
41264;BME280;26998;48.714;9.414;2024-01-06T01:27:39;97734.53;;;5.65;80.88
41264;BME280;26998;48.714;9.414;2024-01-06T01:30:08;97736.69;;;5.56;80.72
41264;BME280;26998;48.714;9.414;2024-01-06T01:32:35;97682.09;;;5.17;80.70
41264;BME280;26998;48.714;9.414;2024-01-06T01:35:02;97744.22;;;5.53;80.69
41264;BME280;26998;48.714;9.414;2024-01-06T01:37:29;97744.13;;;5.59;80.08
41264;BME280;26998;48.714;9.414;2024-01-06T01:39:56;97745.38;;;5.57;80.48
41264;BME280;26998;48.714;9.414;2024-01-06T01:42:22;97729.44;;;5.40;80.63
41264;BME280;26998;48.714;9.414;2024-01-06T01:44:49;97722.59;;;5.39;80.80
41264;BME280;26998;48.714;9.414;2024-01-06T01:47:17;97724.28;;;5.34;80.68
41264;BME280;26998;48.714;9.414;2024-01-06T01:49:48;97725.66;;;5.36;80.96
41264;BME280;26998;48.714;9.414;2024-01-06T01:52:15;97727.47;;;5.36;80.15
41264;BME280;26998;48.714;9.414;2024-01-06T01:54:42;97724.94;;;5.29;81.01
41264;BME280;26998;48.714;9.414;2024-01-06T01:57:11;97766.16;;;5.47;81.10
41264;BME280;26998;48.714;9.414;2024-01-06T01:59:39;97739.81;;;5.35;80.89
41264;BME280;26998;48.714;9.414;2024-01-06T02:02:06;97748.84;;;5.39;80.46
41264;BME280;26998;48.714;9.414;2024-01-06T02:04:33;97762.00;;;5.39;81.14
41264;BME280;26998;48.714;9.414;2024-01-06T02:07:02;97732.50;;;5.08;82.09
41264;BME280;26998;48.714;9.414;2024-01-06T02:09:31;97773.38;;;5.33;82.37
41264;BME280;26998;48.714;9.414;2024-01-06T02:11:58;97744.66;;;5.20;81.91
41264;BME280;26998;48.714;9.414;2024-01-06T02:14:25;97765.59;;;5.27;82.23
41264;BME280;26998;48.714;9.414;2024-01-06T02:16:52;97735.69;;;5.10;82.19
41264;BME280;26998;48.714;9.414;2024-01-06T02:19:18;97770.97;;;5.32;82.27
41264;BME280;26998;48.714;9.414;2024-01-06T02:21:51;97764.34;;;5.29;82.30
41264;BME280;26998;48.714;9.414;2024-01-06T02:24:18;97747.16;;;5.15;82.37
41264;BME280;26998;48.714;9.414;2024-01-06T02:26:44;97742.84;;;5.21;82.26
41264;BME280;26998;48.714;9.414;2024-01-06T02:29:11;97741.09;;;5.15;82.02
41264;BME280;26998;48.714;9.414;2024-01-06T02:31:38;97763.03;;;5.20;82.31
41264;BME280;26998;48.714;9.414;2024-01-06T02:34:04;97776.31;;;5.25;81.80
41264;BME280;26998;48.714;9.414;2024-01-06T02:36:31;97770.66;;;5.10;82.25
41264;BME280;26998;48.714;9.414;2024-01-06T02:38:57;97793.31;;;5.23;81.64
41264;BME280;26998;48.714;9.414;2024-01-06T02:41:24;97749.16;;;5.02;81.56
41264;BME280;26998;48.714;9.414;2024-01-06T02:43:53;97791.25;;;5.25;81.46
41264;BME280;26998;48.714;9.414;2024-01-06T02:46:20;97749.59;;;4.99;81.54
41264;BME280;26998;48.714;9.414;2024-01-06T02:48:47;97793.97;;;5.18;81.17
41264;BME280;26998;48.714;9.414;2024-01-06T02:51:14;97770.22;;;4.95;81.91
41264;BME280;26998;48.714;9.414;2024-01-06T02:53:40;97761.31;;;4.96;82.42
41264;BME280;26998;48.714;9.414;2024-01-06T02:56:11;97793.69;;;5.08;82.18
41264;BME280;26998;48.714;9.414;2024-01-06T02:58:38;97783.78;;;5.10;81.80
41264;BME280;26998;48.714;9.414;2024-01-06T03:01:05;97795.00;;;5.17;82.44
41264;BME280;26998;48.714;9.414;2024-01-06T03:03:32;97791.44;;;5.12;82.15
41264;BME280;26998;48.714;9.414;2024-01-06T03:05:59;97761.53;;;4.95;81.77
41264;BME280;26998;48.714;9.414;2024-01-06T03:08:26;97792.03;;;5.14;82.29
41264;BME280;26998;48.714;9.414;2024-01-06T03:10:53;97797.28;;;5.14;82.67
41264;BME280;26998;48.714;9.414;2024-01-06T03:13:20;97794.19;;;5.17;83.08
41264;BME280;26998;48.714;9.414;2024-01-06T03:15:46;97774.22;;;4.98;82.84
41264;BME280;26998;48.714;9.414;2024-01-06T03:18:13;97767.38;;;4.97;82.83
41264;BME280;26998;48.714;9.414;2024-01-06T03:20:40;97799.09;;;5.13;81.96
41264;BME280;26998;48.714;9.414;2024-01-06T03:23:06;97764.09;;;4.83;82.03
41264;BME280;26998;48.714;9.414;2024-01-06T03:25:33;97803.97;;;5.10;82.03
41264;BME280;26998;48.714;9.414;2024-01-06T03:28:00;97785.09;;;5.01;82.46
41264;BME280;26998;48.714;9.414;2024-01-06T03:30:26;97781.09;;;4.99;81.83
41264;BME280;26998;48.714;9.414;2024-01-06T03:32:53;97787.72;;;5.01;82.02
41264;BME280;26998;48.714;9.414;2024-01-06T03:35:19;97783.06;;;5.03;81.57
41264;BME280;26998;48.714;9.414;2024-01-06T03:37:46;97784.94;;;5.14;81.39
41264;BME280;26998;48.714;9.414;2024-01-06T03:40:13;97779.88;;;5.13;82.26
41264;BME280;26998;48.714;9.414;2024-01-06T03:42:39;97759.00;;;4.88;81.62
41264;BME280;26998;48.714;9.414;2024-01-06T03:45:06;97786.25;;;5.05;81.79
41264;BME280;26998;48.714;9.414;2024-01-06T03:47:33;97751.69;;;4.90;81.24
41264;BME280;26998;48.714;9.414;2024-01-06T03:50:00;97771.66;;;5.09;81.16
41264;BME280;26998;48.714;9.414;2024-01-06T03:52:27;97743.81;;;4.72;81.63
41264;BME280;26998;48.714;9.414;2024-01-06T03:54:53;97751.03;;;4.77;82.33
41264;BME280;26998;48.714;9.414;2024-01-06T03:57:20;97793.78;;;5.02;82.50
41264;BME280;26998;48.714;9.414;2024-01-06T03:59:46;97797.03;;;4.97;82.10
41264;BME280;26998;48.714;9.414;2024-01-06T04:02:13;97781.38;;;4.91;82.30
41264;BME280;26998;48.714;9.414;2024-01-06T04:04:40;97790.50;;;4.88;82.34
41264;BME280;26998;48.714;9.414;2024-01-06T04:07:06;97752.56;;;4.66;81.90
41264;BME280;26998;48.714;9.414;2024-01-06T04:09:33;97780.84;;;4.82;81.64
41264;BME280;26998;48.714;9.414;2024-01-06T04:12:00;97793.75;;;4.84;81.86
41264;BME280;26998;48.714;9.414;2024-01-06T04:14:27;97792.69;;;4.91;81.25
41264;BME280;26998;48.714;9.414;2024-01-06T04:16:54;97769.47;;;4.70;82.60
41264;BME280;26998;48.714;9.414;2024-01-06T04:19:23;97771.38;;;4.81;81.69
41264;BME280;26998;48.714;9.414;2024-01-06T04:21:50;97807.63;;;4.91;82.03
41264;BME280;26998;48.714;9.414;2024-01-06T04:24:17;97790.69;;;4.68;83.60
41264;BME280;26998;48.714;9.414;2024-01-06T04:26:44;97802.75;;;4.76;83.92
41264;BME280;26998;48.714;9.414;2024-01-06T04:29:12;97811.53;;;4.82;84.10
41264;BME280;26998;48.714;9.414;2024-01-06T04:31:40;97771.13;;;4.46;84.38
41264;BME280;26998;48.714;9.414;2024-01-06T04:34:10;97784.19;;;4.53;85.10
41264;BME280;26998;48.714;9.414;2024-01-06T04:36:37;97790.03;;;4.55;84.66
41264;BME280;26998;48.714;9.414;2024-01-06T04:39:03;97816.88;;;4.75;85.14
41264;BME280;26998;48.714;9.414;2024-01-06T04:41:30;97812.34;;;4.64;84.74
41264;BME280;26998;48.714;9.414;2024-01-06T04:43:57;97783.00;;;4.49;85.12
41264;BME280;26998;48.714;9.414;2024-01-06T04:46:23;97819.69;;;4.73;84.75
41264;BME280;26998;48.714;9.414;2024-01-06T04:48:53;97808.25;;;4.68;84.64
41264;BME280;26998;48.714;9.414;2024-01-06T04:51:19;97817.75;;;4.69;84.90
41264;BME280;26998;48.714;9.414;2024-01-06T04:53:46;97816.72;;;4.70;84.19
41264;BME280;26998;48.714;9.414;2024-01-06T04:56:13;97828.84;;;4.71;84.87
41264;BME280;26998;48.714;9.414;2024-01-06T04:58:40;97818.59;;;4.63;84.37
41264;BME280;26998;48.714;9.414;2024-01-06T05:01:07;97817.97;;;4.43;85.17
41264;BME280;26998;48.714;9.414;2024-01-06T05:03:35;97822.72;;;4.52;85.34
41264;BME280;26998;48.714;9.414;2024-01-06T05:06:01;97831.19;;;4.54;85.35
41264;BME280;26998;48.714;9.414;2024-01-06T05:08:28;97840.47;;;4.57;85.44
41264;BME280;26998;48.714;9.414;2024-01-06T05:10:57;97806.91;;;4.41;85.26
41264;BME280;26998;48.714;9.414;2024-01-06T05:13:23;97807.06;;;4.46;84.91
41264;BME280;26998;48.714;9.414;2024-01-06T05:15:50;97832.97;;;4.60;84.81
41264;BME280;26998;48.714;9.414;2024-01-06T05:18:16;97837.03;;;4.56;85.55
41264;BME280;26998;48.714;9.414;2024-01-06T05:20:43;97839.56;;;4.45;86.38
41264;BME280;26998;48.714;9.414;2024-01-06T05:23:10;97830.03;;;4.26;86.38
41264;BME280;26998;48.714;9.414;2024-01-06T05:25:36;97807.44;;;4.25;86.16
41264;BME280;26998;48.714;9.414;2024-01-06T05:28:03;97847.91;;;4.60;84.70
41264;BME280;26998;48.714;9.414;2024-01-06T05:30:30;97816.78;;;4.39;84.56
41264;BME280;26998;48.714;9.414;2024-01-06T05:32:57;97830.78;;;4.33;84.72
41264;BME280;26998;48.714;9.414;2024-01-06T05:35:23;97809.72;;;4.15;85.04
41264;BME280;26998;48.714;9.414;2024-01-06T05:37:50;97847.81;;;4.42;85.35
41264;BME280;26998;48.714;9.414;2024-01-06T05:40:16;97859.94;;;4.43;84.58
41264;BME280;26998;48.714;9.414;2024-01-06T05:42:43;97838.06;;;4.31;84.27
41264;BME280;26998;48.714;9.414;2024-01-06T05:45:10;97824.41;;;4.22;84.68
41264;BME280;26998;48.714;9.414;2024-01-06T05:47:39;97859.28;;;4.47;83.61
41264;BME280;26998;48.714;9.414;2024-01-06T05:50:06;97840.25;;;4.34;83.69
41264;BME280;26998;48.714;9.414;2024-01-06T05:52:35;97845.47;;;4.34;83.35
41264;BME280;26998;48.714;9.414;2024-01-06T05:55:02;97876.44;;;4.50;83.61
41264;BME280;26998;48.714;9.414;2024-01-06T05:57:29;97879.84;;;4.50;84.15
41264;BME280;26998;48.714;9.414;2024-01-06T05:59:56;97853.34;;;4.34;84.08
41264;BME280;26998;48.714;9.414;2024-01-06T06:02:23;97876.84;;;4.47;85.38
41264;BME280;26998;48.714;9.414;2024-01-06T06:04:49;97880.13;;;4.42;85.19
41264;BME280;26998;48.714;9.414;2024-01-06T06:07:16;97892.28;;;4.61;85.16
41264;BME280;26998;48.714;9.414;2024-01-06T06:09:42;97870.44;;;4.43;85.58
41264;BME280;26998;48.714;9.414;2024-01-06T06:12:09;97850.28;;;4.37;84.70
41264;BME280;26998;48.714;9.414;2024-01-06T06:14:36;97892.94;;;4.57;84.83
41264;BME280;26998;48.714;9.414;2024-01-06T06:17:02;97891.91;;;4.58;84.86
41264;BME280;26998;48.714;9.414;2024-01-06T06:19:29;97898.13;;;5.06;82.30
41264;BME280;26998;48.714;9.414;2024-01-06T06:21:55;97898.13;;;5.06;81.03
41264;BME280;26998;48.714;9.414;2024-01-06T06:24:22;97894.84;;;4.68;83.39
41264;BME280;26998;48.714;9.414;2024-01-06T06:26:49;97845.53;;;4.27;83.64
41264;BME280;26998;48.714;9.414;2024-01-06T06:29:15;97892.97;;;4.50;83.71
41264;BME280;26998;48.714;9.414;2024-01-06T06:31:42;97896.56;;;4.56;84.62
41264;BME280;26998;48.714;9.414;2024-01-06T06:34:13;97921.03;;;4.74;84.11
41264;BME280;26998;48.714;9.414;2024-01-06T06:36:40;97898.97;;;4.57;84.20
41264;BME280;26998;48.714;9.414;2024-01-06T06:39:06;97913.81;;;4.70;83.95
41264;BME280;26998;48.714;9.414;2024-01-06T06:41:33;97927.22;;;4.87;83.49
41264;BME280;26998;48.714;9.414;2024-01-06T06:43:59;97933.31;;;4.81;82.63
41264;BME280;26998;48.714;9.414;2024-01-06T06:46:26;97925.94;;;4.64;83.24
41264;BME280;26998;48.714;9.414;2024-01-06T06:48:53;97933.94;;;4.51;83.88
41264;BME280;26998;48.714;9.414;2024-01-06T06:51:19;97898.38;;;4.31;84.84
41264;BME280;26998;48.714;9.414;2024-01-06T06:53:51;97934.47;;;4.60;83.92
41264;BME280;26998;48.714;9.414;2024-01-06T06:56:17;97932.94;;;4.77;83.63
41264;BME280;26998;48.714;9.414;2024-01-06T06:58:44;97921.91;;;4.68;82.74
41264;BME280;26998;48.714;9.414;2024-01-06T07:01:16;97935.00;;;4.68;83.15
41264;BME280;26998;48.714;9.414;2024-01-06T07:03:43;97911.66;;;4.36;83.35
41264;BME280;26998;48.714;9.414;2024-01-06T07:06:13;97947.00;;;4.58;83.59
41264;BME280;26998;48.714;9.414;2024-01-06T07:08:40;97948.94;;;4.69;82.68
41264;BME280;26998;48.714;9.414;2024-01-06T07:11:08;97932.50;;;4.55;83.29
41264;BME280;26998;48.714;9.414;2024-01-06T07:13:35;97941.75;;;4.58;82.76
41264;BME280;26998;48.714;9.414;2024-01-06T07:16:02;97912.63;;;4.41;82.90
41264;BME280;26998;48.714;9.414;2024-01-06T07:18:43;97959.00;;;4.72;82.71
41264;BME280;26998;48.714;9.414;2024-01-06T07:21:12;97936.00;;;4.43;82.81
41264;BME280;26998;48.714;9.414;2024-01-06T07:23:39;97959.69;;;4.61;82.67
41264;BME280;26998;48.714;9.414;2024-01-06T07:26:06;97974.31;;;4.75;82.84
41264;BME280;26998;48.714;9.414;2024-01-06T07:28:34;97954.22;;;4.62;82.65
41264;BME280;26998;48.714;9.414;2024-01-06T07:31:01;97924.41;;;4.57;82.22
41264;BME280;26998;48.714;9.414;2024-01-06T07:33:28;97969.44;;;4.79;82.76
41264;BME280;26998;48.714;9.414;2024-01-06T07:35:55;97965.28;;;4.71;83.07
41264;BME280;26998;48.714;9.414;2024-01-06T07:38:21;97973.69;;;4.80;82.62
41264;BME280;26998;48.714;9.414;2024-01-06T07:40:48;97982.69;;;4.65;83.64
41264;BME280;26998;48.714;9.414;2024-01-06T07:43:15;97978.84;;;4.61;84.40
41264;BME280;26998;48.714;9.414;2024-01-06T07:45:42;97981.44;;;4.68;84.73
41264;BME280;26998;48.714;9.414;2024-01-06T07:48:08;97969.72;;;4.70;84.30
41264;BME280;26998;48.714;9.414;2024-01-06T07:50:35;97983.56;;;4.53;84.91
41264;BME280;26998;48.714;9.414;2024-01-06T07:53:02;97982.13;;;4.57;84.54
41264;BME280;26998;48.714;9.414;2024-01-06T07:55:28;97985.84;;;4.74;83.78
41264;BME280;26998;48.714;9.414;2024-01-06T07:57:55;97984.22;;;4.73;84.16
41264;BME280;26998;48.714;9.414;2024-01-06T08:00:22;97948.66;;;4.52;84.15
41264;BME280;26998;48.714;9.414;2024-01-06T08:02:49;97981.59;;;4.73;84.58
41264;BME280;26998;48.714;9.414;2024-01-06T08:05:16;97978.75;;;4.74;83.83
41264;BME280;26998;48.714;9.414;2024-01-06T08:07:43;97985.19;;;4.79;84.03
41264;BME280;26998;48.714;9.414;2024-01-06T08:10:09;97954.78;;;4.71;83.24
41264;BME280;26998;48.714;9.414;2024-01-06T08:12:36;97956.97;;;4.74;83.23
41264;BME280;26998;48.714;9.414;2024-01-06T08:15:04;97979.44;;;4.95;82.41
41264;BME280;26998;48.714;9.414;2024-01-06T08:17:31;97991.28;;;5.04;82.31
41264;BME280;26998;48.714;9.414;2024-01-06T08:19:57;97971.81;;;5.11;81.39
41264;BME280;26998;48.714;9.414;2024-01-06T08:22:24;97991.09;;;5.23;81.37
41264;BME280;26998;48.714;9.414;2024-01-06T08:24:51;97996.78;;;5.20;81.21
41264;BME280;26998;48.714;9.414;2024-01-06T08:27:19;97949.97;;;4.93;81.78
41264;BME280;26998;48.714;9.414;2024-01-06T08:29:45;97990.47;;;5.03;81.63
41264;BME280;26998;48.714;9.414;2024-01-06T08:32:12;97958.44;;;4.95;81.33
41264;BME280;26998;48.714;9.414;2024-01-06T08:34:41;97984.03;;;5.24;81.09
41264;BME280;26998;48.714;9.414;2024-01-06T08:37:07;97958.25;;;5.14;80.08
41264;BME280;26998;48.714;9.414;2024-01-06T08:39:34;97985.59;;;5.31;79.65
41264;BME280;26998;48.714;9.414;2024-01-06T08:42:01;97989.13;;;5.37;80.46
41264;BME280;26998;48.714;9.414;2024-01-06T08:44:28;98008.13;;;5.39;80.25
41264;BME280;26998;48.714;9.414;2024-01-06T08:46:54;98011.34;;;5.41;80.84
41264;BME280;26998;48.714;9.414;2024-01-06T08:49:21;98004.88;;;5.61;79.60
41264;BME280;26998;48.714;9.414;2024-01-06T08:51:49;97999.38;;;5.45;80.03
41264;BME280;26998;48.714;9.414;2024-01-06T08:54:15;98013.38;;;5.39;81.13
41264;BME280;26998;48.714;9.414;2024-01-06T08:56:42;97992.34;;;5.39;80.04
41264;BME280;26998;48.714;9.414;2024-01-06T08:59:09;98011.16;;;5.60;79.54
41264;BME280;26998;48.714;9.414;2024-01-06T09:01:35;98011.66;;;5.51;80.37
41264;BME280;26998;48.714;9.414;2024-01-06T09:04:04;98023.72;;;5.58;80.72
41264;BME280;26998;48.714;9.414;2024-01-06T09:06:31;98026.13;;;5.60;80.26
41264;BME280;26998;48.714;9.414;2024-01-06T09:08:58;97985.00;;;5.47;79.88
41264;BME280;26998;48.714;9.414;2024-01-06T09:11:24;98024.06;;;5.62;79.63
41264;BME280;26998;48.714;9.414;2024-01-06T09:13:51;98030.72;;;5.64;79.06
41264;BME280;26998;48.714;9.414;2024-01-06T09:16:19;97989.88;;;5.44;80.14
41264;BME280;26998;48.714;9.414;2024-01-06T09:18:46;97999.13;;;5.28;80.48
41264;BME280;26998;48.714;9.414;2024-01-06T09:21:13;98006.09;;;5.41;80.67
41264;BME280;26998;48.714;9.414;2024-01-06T09:23:39;98004.34;;;5.35;80.73
41264;BME280;26998;48.714;9.414;2024-01-06T09:26:07;98022.16;;;5.51;80.01
41264;BME280;26998;48.714;9.414;2024-01-06T09:28:34;98023.03;;;5.63;79.92
41264;BME280;26998;48.714;9.414;2024-01-06T09:31:00;98040.44;;;5.64;79.60
41264;BME280;26998;48.714;9.414;2024-01-06T09:33:29;98050.00;;;5.76;79.12
41264;BME280;26998;48.714;9.414;2024-01-06T09:35:56;98044.56;;;5.78;78.80
41264;BME280;26998;48.714;9.414;2024-01-06T09:38:22;98047.72;;;5.87;77.80
41264;BME280;26998;48.714;9.414;2024-01-06T09:40:49;98015.47;;;5.55;77.48
41264;BME280;26998;48.714;9.414;2024-01-06T09:43:16;98046.63;;;5.69;76.89
41264;BME280;26998;48.714;9.414;2024-01-06T09:45:44;98067.13;;;5.85;77.68
41264;BME280;26998;48.714;9.414;2024-01-06T09:48:13;98049.91;;;5.90;77.82
41264;BME280;26998;48.714;9.414;2024-01-06T09:50:41;98016.84;;;5.75;77.70
41264;BME280;26998;48.714;9.414;2024-01-06T09:53:10;98044.06;;;5.88;77.85
41264;BME280;26998;48.714;9.414;2024-01-06T09:55:38;98059.53;;;5.96;77.79
41264;BME280;26998;48.714;9.414;2024-01-06T09:58:05;98060.41;;;6.08;77.79
41264;BME280;26998;48.714;9.414;2024-01-06T10:00:37;98035.88;;;5.96;77.18
41264;BME280;26998;48.714;9.414;2024-01-06T10:03:04;98051.88;;;6.12;74.95
41264;BME280;26998;48.714;9.414;2024-01-06T10:05:30;98018.50;;;5.95;75.29
41264;BME280;26998;48.714;9.414;2024-01-06T10:07:58;98060.19;;;6.27;74.58
41264;BME280;26998;48.714;9.414;2024-01-06T10:10:27;98052.59;;;6.37;73.15
41264;BME280;26998;48.714;9.414;2024-01-06T10:12:53;98076.41;;;6.42;75.10
41264;BME280;26998;48.714;9.414;2024-01-06T10:15:21;98060.63;;;6.72;72.70
41264;BME280;26998;48.714;9.414;2024-01-06T10:17:48;98049.28;;;7.01;70.72
41264;BME280;26998;48.714;9.414;2024-01-06T10:20:15;98061.97;;;7.04;70.52
41264;BME280;26998;48.714;9.414;2024-01-06T10:22:44;98038.09;;;7.17;69.61
41264;BME280;26998;48.714;9.414;2024-01-06T10:25:11;98059.75;;;7.19;70.09
41264;BME280;26998;48.714;9.414;2024-01-06T10:27:39;98028.38;;;7.29;67.41
41264;BME280;26998;48.714;9.414;2024-01-06T10:30:07;98061.09;;;7.22;70.65
41264;BME280;26998;48.714;9.414;2024-01-06T10:32:35;98034.34;;;7.48;66.57
41264;BME280;26998;48.714;9.414;2024-01-06T10:35:03;98027.13;;;7.43;66.70
41264;BME280;26998;48.714;9.414;2024-01-06T10:37:32;98036.38;;;7.46;67.72
41264;BME280;26998;48.714;9.414;2024-01-06T10:40:24;98043.41;;;7.52;66.74
41264;BME280;26998;48.714;9.414;2024-01-06T10:42:52;98044.66;;;7.95;65.49
41264;BME280;26998;48.714;9.414;2024-01-06T10:45:18;98054.13;;;8.08;66.04
41264;BME280;26998;48.714;9.414;2024-01-06T10:47:46;98059.44;;;7.85;64.97
41264;BME280;26998;48.714;9.414;2024-01-06T10:50:14;98026.56;;;7.64;65.09
41264;BME280;26998;48.714;9.414;2024-01-06T10:52:41;98051.09;;;7.76;65.87
41264;BME280;26998;48.714;9.414;2024-01-06T10:55:08;98023.34;;;7.62;64.87
41264;BME280;26998;48.714;9.414;2024-01-06T10:57:43;98043.28;;;7.81;64.41
41264;BME280;26998;48.714;9.414;2024-01-06T11:00:10;98031.38;;;7.56;64.88
41264;BME280;26998;48.714;9.414;2024-01-06T11:02:38;98021.03;;;7.31;65.42
41264;BME280;26998;48.714;9.414;2024-01-06T11:05:05;98028.78;;;7.15;66.11
41264;BME280;26998;48.714;9.414;2024-01-06T11:07:37;98024.91;;;7.17;67.58
41264;BME280;26998;48.714;9.414;2024-01-06T11:10:15;98003.47;;;7.02;67.19
41264;BME280;26998;48.714;9.414;2024-01-06T11:12:43;98040.72;;;7.17;66.31
41264;BME280;26998;48.714;9.414;2024-01-06T11:15:10;98003.44;;;6.90;67.92
41264;BME280;26998;48.714;9.414;2024-01-06T11:17:50;98049.22;;;7.19;67.80
41264;BME280;26998;48.714;9.414;2024-01-06T11:20:22;98029.88;;;6.84;68.16
41264;BME280;26998;48.714;9.414;2024-01-06T11:22:49;98010.97;;;6.87;67.25
41264;BME280;26998;48.714;9.414;2024-01-06T11:25:18;98036.22;;;7.06;67.13
41264;BME280;26998;48.714;9.414;2024-01-06T11:27:49;98036.31;;;6.88;68.69
41264;BME280;26998;48.714;9.414;2024-01-06T11:30:24;97994.97;;;6.47;68.54
41264;BME280;26998;48.714;9.414;2024-01-06T11:33:04;98036.94;;;6.72;68.75
41264;BME280;26998;48.714;9.414;2024-01-06T11:35:31;98035.59;;;6.81;68.44
41264;BME280;26998;48.714;9.414;2024-01-06T11:38:00;98012.91;;;6.80;68.84
41264;BME280;26998;48.714;9.414;2024-01-06T11:40:32;98038.16;;;6.99;68.24
41264;BME280;26998;48.714;9.414;2024-01-06T11:43:10;98023.25;;;6.52;71.92
41264;BME280;26998;48.714;9.414;2024-01-06T11:45:40;98031.25;;;6.27;73.83
41264;BME280;26998;48.714;9.414;2024-01-06T11:48:10;98022.41;;;6.40;71.70
41264;BME280;26998;48.714;9.414;2024-01-06T11:50:39;97990.72;;;6.17;71.27
41264;BME280;26998;48.714;9.414;2024-01-06T11:53:07;98025.97;;;6.45;70.71
41264;BME280;26998;48.714;9.414;2024-01-06T11:55:38;97991.91;;;6.03;73.04
41264;BME280;26998;48.714;9.414;2024-01-06T11:58:05;98005.19;;;6.08;72.72
41264;BME280;26998;48.714;9.414;2024-01-06T12:00:33;98027.41;;;6.30;72.14
41264;BME280;26998;48.714;9.414;2024-01-06T12:03:01;98011.25;;;6.08;73.26
41264;BME280;26998;48.714;9.414;2024-01-06T12:05:28;98002.69;;;6.31;71.92
41264;BME280;26998;48.714;9.414;2024-01-06T12:08:02;98023.06;;;6.35;72.98
41264;BME280;26998;48.714;9.414;2024-01-06T12:10:34;98022.81;;;6.55;71.94
41264;BME280;26998;48.714;9.414;2024-01-06T12:13:03;97987.16;;;6.41;71.62
41264;BME280;26998;48.714;9.414;2024-01-06T12:15:31;98016.25;;;6.46;73.51
41264;BME280;26998;48.714;9.414;2024-01-06T12:17:58;98022.69;;;6.91;70.50
41264;BME280;26998;48.714;9.414;2024-01-06T12:20:26;98015.81;;;6.90;70.73
41264;BME280;26998;48.714;9.414;2024-01-06T12:22:55;98008.00;;;6.83;70.77
41264;BME280;26998;48.714;9.414;2024-01-06T12:25:24;98002.19;;;6.93;70.69
41264;BME280;26998;48.714;9.414;2024-01-06T12:27:52;97997.22;;;6.73;70.27
41264;BME280;26998;48.714;9.414;2024-01-06T12:30:21;98001.00;;;6.66;71.59
41264;BME280;26998;48.714;9.414;2024-01-06T12:32:49;97974.97;;;6.58;71.11
41264;BME280;26998;48.714;9.414;2024-01-06T12:35:17;98001.03;;;6.77;71.55
41264;BME280;26998;48.714;9.414;2024-01-06T12:37:44;97985.97;;;6.66;71.54
41264;BME280;26998;48.714;9.414;2024-01-06T12:40:16;97997.94;;;6.80;72.06
41264;BME280;26998;48.714;9.414;2024-01-06T12:42:44;97977.56;;;6.76;70.96
41264;BME280;26998;48.714;9.414;2024-01-06T12:45:12;97997.63;;;6.88;71.27
41264;BME280;26998;48.714;9.414;2024-01-06T12:47:40;97991.41;;;6.83;71.56
41264;BME280;26998;48.714;9.414;2024-01-06T12:50:08;97994.94;;;6.77;70.94
41264;BME280;26998;48.714;9.414;2024-01-06T12:52:35;97967.06;;;6.58;71.41
41264;BME280;26998;48.714;9.414;2024-01-06T12:55:02;97952.56;;;6.26;73.84
41264;BME280;26998;48.714;9.414;2024-01-06T12:57:30;97984.63;;;6.75;71.32
41264;BME280;26998;48.714;9.414;2024-01-06T12:59:57;97976.38;;;6.60;71.62
41264;BME280;26998;48.714;9.414;2024-01-06T13:02:24;98004.81;;;6.81;70.74
41264;BME280;26998;48.714;9.414;2024-01-06T13:04:51;97989.16;;;6.57;72.48
41264;BME280;26998;48.714;9.414;2024-01-06T13:07:18;97994.34;;;6.63;72.04
41264;BME280;26998;48.714;9.414;2024-01-06T13:09:44;97996.22;;;6.45;72.75
41264;BME280;26998;48.714;9.414;2024-01-06T13:12:11;97965.72;;;6.26;73.44